Time;durP1;ratioP1;P1;durP2;ratioP2;P2;SDS_P1;SDS_P2;PMS_P1;PMS_P2;Temp;Humidity;BMP_temperature;BMP_pressure;BME280_temperature;BME280_humidity;BME280_pressure;Samples;Min_cycle;Max_cycle;Signal;HPM_P1;HPM_P2
2022/06/30 00:00:14;;;;;;;29.60;16.80;;;18.10;99.90;;;;;;5015171;28;20018;-70
2022/06/30 00:02:40;;;;;;;29.73;16.27;;;18.10;99.90;;;;;;4997332;28;20034;-70
2022/06/30 00:05:06;;;;;;;26.15;16.10;;;18.00;99.90;;;;;;5015528;28;20028;-69
2022/06/30 00:07:32;;;;;;;26.60;16.42;;;17.90;99.90;;;;;;5015382;28;20026;-69
2022/06/30 00:09:57;;;;;;;20.80;16.75;;;17.90;99.90;;;;;;5015102;28;20474;-69
2022/06/30 00:12:23;;;;;;;24.98;16.25;;;17.80;99.90;;;;;;5015027;28;20494;-69
2022/06/30 00:14:48;;;;;;;22.50;16.65;;;17.80;99.90;;;;;;4997373;28;20101;-68
2022/06/30 00:17:14;;;;;;;26.30;17.55;;;17.90;99.90;;;;;;5013989;28;20101;-68
2022/06/30 00:19:40;;;;;;;19.60;15.95;;;17.80;99.90;;;;;;5015193;28;20026;-69
2022/06/30 00:22:07;;;;;;;21.20;16.60;;;17.70;99.90;;;;;;5011632;28;20030;-68
2022/06/30 00:24:33;;;;;;;24.52;15.63;;;17.70;99.90;;;;;;5000735;28;20102;-68
2022/06/30 00:26:58;;;;;;;21.25;16.92;;;17.80;99.90;;;;;;5014560;28;20105;-68
2022/06/30 00:29:24;;;;;;;26.20;16.73;;;17.70;99.90;;;;;;5015071;28;20509;-68
2022/06/30 00:31:49;;;;;;;20.48;16.88;;;17.70;99.90;;;;;;5014553;28;20030;-68
2022/06/30 00:34:15;;;;;;;25.17;16.50;;;17.70;99.90;;;;;;5014678;28;20064;-68
2022/06/30 00:36:53;;;;;;;22.65;16.88;;;17.60;99.90;;;;;;5014185;28;20075;-68
2022/06/30 00:39:28;;;;;;;42.20;20.80;;;17.60;99.90;;;;;;5014703;28;20081;-68
2022/06/30 00:41:54;;;;;;;29.55;18.33;;;17.60;99.90;;;;;;5014629;28;20048;-68
2022/06/30 00:44:20;;;;;;;37.55;19.90;;;17.50;99.90;;;;;;4997145;28;20041;-68
2022/06/30 00:46:45;;;;;;;24.98;17.52;;;17.60;99.90;;;;;;5013942;28;20397;-68
2022/06/30 00:49:11;;;;;;;28.55;18.75;;;17.50;99.90;;;;;;5014608;28;20466;-68
2022/06/30 00:51:36;;;;;;;42.10;19.58;;;17.50;99.90;;;;;;4996991;28;20371;-68
2022/06/30 00:54:03;;;;;;;27.40;18.20;;;17.50;99.90;;;;;;4999480;28;20022;-69
2022/06/30 00:56:29;;;;;;;31.13;18.77;;;17.50;99.90;;;;;;5002708;28;20048;-69
2022/06/30 00:58:57;;;;;;;30.05;18.45;;;17.40;99.90;;;;;;4996639;28;20018;-69
2022/06/30 01:01:22;;;;;;;25.30;18.73;;;17.40;99.90;;;;;;5014090;28;20057;-68
2022/06/30 01:03:48;;;;;;;22.23;17.30;;;17.60;99.90;;;;;;5014094;28;20127;-69
2022/06/30 01:06:13;;;;;;;21.63;17.50;;;17.40;99.90;;;;;;4996337;28;20505;-69
2022/06/30 01:08:39;;;;;;;22.48;17.30;;;17.40;99.90;;;;;;4996720;28;20120;-69
2022/06/30 01:14:08;;;;;;;24.10;17.33;;;17.40;99.90;;;;;;4953435;29;20415;-68
2022/06/30 01:16:34;;;;;;;24.58;17.90;;;17.30;99.90;;;;;;4953267;29;20023;-68
2022/06/30 01:19:00;;;;;;;23.13;16.48;;;17.30;99.90;;;;;;4964192;28;20046;-68
2022/06/30 01:21:26;;;;;;;17.80;14.43;;;17.70;99.90;;;;;;5014002;28;20481;-68
2022/06/30 01:23:52;;;;;;;21.80;15.73;;;17.90;99.90;;;;;;5013881;28;20030;-68
2022/06/30 01:26:17;;;;;;;18.65;15.80;;;18.60;99.90;;;;;;5013942;28;20036;-68
2022/06/30 01:28:43;;;;;;;22.35;15.60;;;18.30;99.90;;;;;;5013230;28;20389;-68
2022/06/30 01:31:08;;;;;;;20.77;13.85;;;18.30;99.90;;;;;;5013527;28;20541;-68
2022/06/30 01:33:34;;;;;;;21.60;14.13;;;18.40;99.90;;;;;;5013424;28;20117;-70
2022/06/30 01:36:00;;;;;;;17.67;12.90;;;18.70;99.90;;;;;;5013412;28;20113;-70
2022/06/30 01:38:25;;;;;;;16.80;12.45;;;19.10;99.90;;;;;;4995793;28;20104;-70
2022/06/30 01:40:51;;;;;;;19.95;13.98;;;19.40;99.90;;;;;;4996104;28;20026;-71
2022/06/30 01:43:16;;;;;;;14.82;13.32;;;19.60;99.90;;;;;;5013109;28;20034;-70
2022/06/30 01:45:42;;;;;;;14.32;12.82;;;19.70;99.90;;;;;;5013651;28;20037;-71
2022/06/30 01:48:08;;;;;;;14.77;13.00;;;20.10;99.90;;;;;;5013119;28;20025;-70
2022/06/30 01:50:34;;;;;;;18.25;15.88;;;20.10;99.90;;;;;;4995583;28;20026;-69
2022/06/30 01:52:59;;;;;;;24.33;17.52;;;20.00;99.90;;;;;;5010863;28;20037;-70
2022/06/30 01:55:25;;;;;;;31.63;24.50;;;20.10;99.90;;;;;;4995971;28;20046;-70
2022/06/30 01:57:51;;;;;;;32.58;25.05;;;20.00;99.90;;;;;;4995608;28;20026;-70
2022/06/30 02:00:18;;;;;;;33.78;24.25;;;20.00;99.90;;;;;;5013131;28;20068;-70
2022/06/30 02:02:44;;;;;;;23.90;20.98;;;19.80;99.90;;;;;;4995397;28;20041;-71
2022/06/30 02:05:10;;;;;;;34.33;24.30;;;19.70;99.90;;;;;;5013186;28;20034;-71
2022/06/30 02:07:36;;;;;;;29.10;22.60;;;20.60;99.90;;;;;;4979636;28;20109;-70
2022/06/30 02:10:03;;;;;;;30.77;23.15;;;19.70;99.90;;;;;;4994400;28;20390;-70
2022/06/30 02:12:47;;;;;;;27.65;23.00;;;19.70;99.90;;;;;;5012547;28;20116;-70
2022/06/30 02:15:13;;;;;;;30.52;21.52;;;19.60;99.90;;;;;;5012973;28;20470;-70
2022/06/30 02:21:00;;;;;;;26.75;17.33;;;19.40;99.90;;;;;;5013105;28;20064;-70
2022/06/30 02:23:26;;;;;;;20.67;17.73;;;19.50;99.90;;;;;;5011459;28;20057;-70
2022/06/30 02:25:51;;;;;;;28.70;20.38;;;19.40;99.90;;;;;;4994469;28;20049;-71
2022/06/30 02:28:17;;;;;;;29.52;23.90;;;20.10;99.90;;;;;;5013105;28;20465;-70
2022/06/30 02:30:42;;;;;;;30.40;23.60;;;19.40;99.90;;;;;;5012730;28;20451;-71
2022/06/30 02:33:08;;;;;;;31.70;23.00;;;19.40;99.90;;;;;;5012383;28;20140;-70
2022/06/30 02:35:33;;;;;;;34.80;24.63;;;20.20;99.90;;;;;;4995631;28;20022;-70
2022/06/30 02:37:59;;;;;;;27.85;23.65;;;19.50;99.90;;;;;;5012716;28;20033;-71
2022/06/30 02:40:24;;;;;;;29.13;24.48;;;19.60;99.90;;;;;;4995851;28;20022;-70
2022/06/30 02:42:50;;;;;;;35.97;23.92;;;19.80;99.90;;;;;;5016703;28;20475;-70
2022/06/30 02:45:15;;;;;;;32.47;22.80;;;19.70;99.90;;;;;;5016558;28;20014;-70
2022/06/30 02:47:42;;;;;;;28.73;20.08;;;19.60;99.90;;;;;;5016565;28;20024;-70
2022/06/30 02:50:09;;;;;;;19.63;15.75;;;19.70;99.90;;;;;;4999346;28;20032;-70
2022/06/30 02:52:35;;;;;;;21.00;14.95;;;19.60;99.90;;;;;;5016505;28;20033;-71
2022/06/30 02:55:01;;;;;;;17.42;15.05;;;19.60;99.90;;;;;;5016476;28;20045;-70
2022/06/30 02:57:26;;;;;;;18.92;16.00;;;19.50;99.90;;;;;;5016431;28;20026;-71
2022/06/30 02:59:52;;;;;;;21.33;16.67;;;19.50;99.90;;;;;;5016510;28;20025;-71
2022/06/30 03:02:17;;;;;;;28.17;16.73;;;19.80;99.90;;;;;;4999118;28;20390;-70
2022/06/30 03:04:43;;;;;;;20.27;15.82;;;19.40;99.90;;;;;;5016144;28;20530;-70
2022/06/30 03:07:08;;;;;;;21.25;16.27;;;19.80;99.90;;;;;;4998879;28;20053;-70
2022/06/30 03:09:34;;;;;;;22.25;17.58;;;19.50;99.90;;;;;;4998818;28;20037;-70
2022/06/30 03:12:00;;;;;;;24.88;19.23;;;19.40;99.90;;;;;;5015916;28;20037;-70
2022/06/30 03:14:25;;;;;;;23.48;20.40;;;19.40;99.90;;;;;;5016263;28;20091;-70
2022/06/30 03:16:51;;;;;;;28.88;23.42;;;19.30;99.90;;;;;;5016130;28;20022;-71
2022/06/30 03:19:16;;;;;;;30.65;23.92;;;19.20;99.90;;;;;;4998729;28;20030;-70
2022/06/30 03:21:42;;;;;;;31.80;23.08;;;19.50;99.90;;;;;;4998546;28;20026;-71
2022/06/30 03:24:08;;;;;;;28.38;22.38;;;19.90;99.90;;;;;;5015506;28;20060;-70
2022/06/30 03:26:34;;;;;;;26.27;22.58;;;19.70;99.90;;;;;;5016227;28;20394;-71
2022/06/30 03:29:00;;;;;;;27.30;21.33;;;19.70;99.90;;;;;;4998718;28;20029;-71
2022/06/30 03:31:25;;;;;;;30.95;23.30;;;19.70;99.90;;;;;;5015994;28;20026;-71
2022/06/30 03:33:51;;;;;;;32.97;22.67;;;19.70;99.90;;;;;;4998040;28;20034;-70
2022/06/30 03:36:16;;;;;;;29.27;23.63;;;19.60;99.90;;;;;;5016059;28;20022;-70
2022/06/30 03:38:42;;;;;;;32.30;23.50;;;19.60;99.90;;;;;;4997063;28;20018;-71
2022/06/30 03:41:07;;;;;;;29.02;20.15;;;19.60;99.90;;;;;;5015570;28;20144;-71
2022/06/30 03:43:33;;;;;;;29.42;20.77;;;20.40;99.90;;;;;;5015920;28;20365;-71
2022/06/30 03:45:59;;;;;;;28.17;20.42;;;19.60;99.90;;;;;;5015891;28;20026;-70
2022/06/30 03:48:24;;;;;;;30.48;21.98;;;19.60;99.90;;;;;;5015931;28;20022;-70
2022/06/30 03:50:50;;;;;;;29.80;23.48;;;19.60;99.90;;;;;;5015578;28;20033;-70
2022/06/30 03:53:15;;;;;;;27.85;22.58;;;19.60;99.90;;;;;;5014260;28;20040;-70
2022/06/30 03:55:41;;;;;;;27.70;21.23;;;20.50;99.90;;;;;;5015602;28;20045;-70
2022/06/30 03:58:07;;;;;;;32.67;22.85;;;19.60;99.90;;;;;;4998106;28;20532;-70
2022/06/30 04:00:33;;;;;;;29.58;21.48;;;19.60;99.90;;;;;;5015718;28;20034;-71
2022/06/30 04:02:59;;;;;;;25.88;19.35;;;19.50;99.90;;;;;;5015228;28;20173;-70
2022/06/30 04:05:24;;;;;;;28.98;19.27;;;19.50;99.90;;;;;;5015632;28;20406;-70
2022/06/30 04:07:50;;;;;;;25.25;19.20;;;19.60;99.90;;;;;;5015404;28;20375;-70
2022/06/30 04:10:16;;;;;;;22.00;16.77;;;19.50;99.90;;;;;;5015330;28;20025;-70
2022/06/30 04:12:42;;;;;;;24.40;15.07;;;19.80;99.90;;;;;;4997951;28;20014;-70
2022/06/30 04:15:08;;;;;;;16.45;14.20;;;19.90;99.90;;;;;;5014700;28;20022;-70
2022/06/30 04:17:33;;;;;;;20.13;14.45;;;20.20;99.90;;;;;;4995739;28;20182;-70
2022/06/30 04:20:00;;;;;;;15.73;13.57;;;20.30;99.90;;;;;;5011498;28;20029;-71
2022/06/30 04:22:26;;;;;;;17.33;14.20;;;20.40;99.90;;;;;;5014606;28;20041;-70
2022/06/30 04:24:51;;;;;;;22.05;14.55;;;20.50;99.90;;;;;;5014361;28;20486;-70
2022/06/30 04:27:20;;;;;;;21.42;14.15;;;20.70;99.90;;;;;;5013670;28;20026;-70
2022/06/30 04:29:45;;;;;;;15.63;13.80;;;20.90;99.90;;;;;;5007884;28;20026;-70
2022/06/30 04:34:54;;;;;;;17.42;15.50;;;21.00;99.90;;;;;;4995771;28;20080;-71
2022/06/30 04:37:20;;;;;;;22.60;16.33;;;21.10;99.90;;;;;;4983919;28;20030;-69
2022/06/30 04:39:45;;;;;;;24.58;17.38;;;20.70;99.90;;;;;;4997552;28;20030;-70
2022/06/30 04:42:23;;;;;;;27.52;18.00;;;21.00;99.90;;;;;;5000868;28;20092;-70
2022/06/30 04:44:49;;;;;;;23.92;17.15;;;21.10;99.90;;;;;;4995117;28;20486;-70
2022/06/30 04:47:14;;;;;;;21.88;16.98;;;21.30;99.90;;;;;;5006803;28;20026;-71
2022/06/30 04:49:40;;;;;;;24.08;18.92;;;21.10;99.90;;;;;;5002266;28;20034;-70
2022/06/30 04:52:06;;;;;;;22.75;17.80;;;20.90;99.90;;;;;;5014332;28;20039;-69
2022/06/30 04:54:31;;;;;;;20.75;15.43;;;20.50;99.90;;;;;;5013590;28;20069;-69
2022/06/30 04:57:03;;;;;;;19.02;14.70;;;20.50;99.90;;;;;;5013046;28;20088;-69
2022/06/30 04:59:29;;;;;;;16.85;15.05;;;20.50;99.90;;;;;;5014083;28;20541;-69
2022/06/30 05:01:54;;;;;;;19.75;15.57;;;20.70;99.90;;;;;;5013905;28;20042;-69
2022/06/30 05:04:20;;;;;;;20.58;14.52;;;20.70;99.90;;;;;;5014192;28;20033;-69
2022/06/30 05:06:45;;;;;;;15.52;13.93;;;21.10;99.90;;;;;;5013426;28;20033;-70
2022/06/30 05:09:11;;;;;;;21.33;13.75;;;21.60;99.90;;;;;;4996749;28;20029;-70
2022/06/30 05:14:23;;;;;;;14.55;12.75;;;22.40;99.90;;;;;;4970233;28;20509;-70
2022/06/30 05:16:49;;;;;;;16.95;12.90;;;21.90;99.90;;;;;;5013921;28;20058;-69
2022/06/30 05:19:14;;;;;;;16.25;13.57;;;21.90;99.90;;;;;;5013651;28;20053;-69
2022/06/30 05:21:40;;;;;;;16.63;13.50;;;22.20;99.90;;;;;;5014196;28;20113;-69
2022/06/30 05:26:50;;;;;;;19.75;16.02;;;21.90;99.90;;;;;;5012237;28;20037;-69
2022/06/30 05:29:15;;;;;;;17.08;14.57;;;21.80;99.90;;;;;;5013538;28;20033;-68
2022/06/30 05:31:41;;;;;;;25.85;18.10;;;22.00;99.90;;;;;;5013355;28;20482;-68
2022/06/30 05:34:07;;;;;;;20.90;17.00;;;21.80;99.90;;;;;;5012768;28;20030;-67
2022/06/30 05:36:32;;;;;;;25.45;17.67;;;21.80;99.90;;;;;;5013930;28;20018;-68
2022/06/30 05:38:58;;;;;;;26.90;18.33;;;21.80;99.90;;;;;;5013284;28;20034;-69
2022/06/30 05:41:23;;;;;;;19.55;15.25;;;22.20;99.90;;;;;;5013421;28;20486;-68
2022/06/30 05:43:51;;;;;;;18.60;15.02;;;23.10;99.90;;;;;;5012442;28;20129;-69
2022/06/30 05:46:16;;;;;;;14.70;12.93;;;23.20;99.90;;;;;;5013070;28;20030;-68
2022/06/30 05:48:42;;;;;;;17.35;13.13;;;23.40;99.90;;;;;;5013610;28;20076;-69
2022/06/30 05:51:07;;;;;;;16.92;13.00;;;23.90;99.40;;;;;;5013426;28;20113;-69
2022/06/30 05:53:33;;;;;;;13.40;12.00;;;24.70;99.00;;;;;;5013631;28;20025;-69
2022/06/30 05:55:58;;;;;;;14.73;11.82;;;24.60;97.70;;;;;;4992580;28;20046;-69
2022/06/30 05:58:24;;;;;;;14.15;11.15;;;25.20;96.80;;;;;;4993856;28;20029;-69
2022/06/30 06:00:50;;;;;;;18.02;12.45;;;25.70;96.10;;;;;;4993910;28;20073;-69
2022/06/30 06:03:16;;;;;;;15.98;12.40;;;25.70;95.70;;;;;;4993573;28;20033;-69
2022/06/30 06:05:42;;;;;;;12.57;11.05;;;25.40;95.70;;;;;;4993879;28;20506;-70
2022/06/30 06:08:08;;;;;;;18.20;11.35;;;26.10;95.10;;;;;;4993773;28;20056;-70
2022/06/30 06:10:34;;;;;;;13.73;10.20;;;26.70;93.80;;;;;;4992557;28;20042;-69
2022/06/30 06:12:59;;;;;;;11.95;10.55;;;27.10;91.80;;;;;;4989164;28;20034;-70
2022/06/30 06:15:25;;;;;;;17.40;11.77;;;27.00;91.60;;;;;;4992044;28;20061;-70
2022/06/30 06:17:50;;;;;;;15.98;11.65;;;27.30;91.00;;;;;;4993727;28;20105;-70
2022/06/30 06:20:17;;;;;;;18.33;10.15;;;27.70;90.70;;;;;;4993560;28;20022;-70
2022/06/30 06:22:42;;;;;;;15.80;9.55;;;28.30;90.10;;;;;;4993666;28;20029;-70
2022/06/30 06:25:08;;;;;;;14.23;10.50;;;27.60;87.70;;;;;;4993459;28;20019;-70
2022/06/30 06:27:34;;;;;;;9.80;8.70;;;27.10;89.50;;;;;;4993542;28;20049;-69
2022/06/30 06:30:00;;;;;;;16.92;9.60;;;28.00;87.60;;;;;;4992155;28;20022;-69
2022/06/30 06:32:26;;;;;;;11.68;9.13;;;27.90;85.30;;;;;;4993344;28;20081;-70
2022/06/30 06:34:51;;;;;;;12.55;9.70;;;28.80;81.10;;;;;;4993422;28;20437;-68
2022/06/30 06:37:17;;;;;;;12.50;9.55;;;29.30;78.40;;;;;;4993246;28;20027;-71
2022/06/30 06:39:42;;;;;;;10.70;9.32;;;29.30;78.00;;;;;;4993581;28;20069;-70
2022/06/30 06:42:08;;;;;;;17.85;9.77;;;29.10;78.30;;;;;;4993348;28;20034;-71
2022/06/30 06:44:34;;;;;;;16.25;8.50;;;29.40;77.00;;;;;;4993339;28;20049;-71
2022/06/30 06:46:59;;;;;;;14.55;9.00;;;28.90;76.10;;;;;;4993234;28;20125;-70
2022/06/30 06:49:25;;;;;;;17.52;9.23;;;28.10;78.30;;;;;;4993195;28;20033;-71
2022/06/30 06:51:50;;;;;;;15.50;8.65;;;28.00;77.80;;;;;;4992575;28;20049;-70
2022/06/30 06:54:16;;;;;;;10.07;7.95;;;27.70;81.30;;;;;;4996873;28;20038;-70
2022/06/30 06:56:41;;;;;;;9.52;7.30;;;28.20;76.60;;;;;;5012890;28;20029;-71
2022/06/30 06:59:07;;;;;;;12.07;7.28;;;28.20;73.20;;;;;;5012899;28;20378;-71
2022/06/30 07:01:35;;;;;;;15.38;7.50;;;28.30;73.20;;;;;;5012420;28;20045;-71
2022/06/30 07:04:01;;;;;;;11.77;8.18;;;28.20;76.30;;;;;;5012614;28;20030;-71
2022/06/30 07:06:53;;;;;;;15.00;7.95;;;28.10;77.30;;;;;;5012739;28;20105;-70
2022/06/30 07:09:18;;;;;;;11.13;4.75;;;28.00;80.40;;;;;;5010596;28;20046;-71
2022/06/30 07:11:44;;;;;;;11.18;4.20;;;29.70;61.80;;;;;;4995393;28;20153;-71
2022/06/30 07:14:09;;;;;;;14.35;4.93;;;28.90;56.90;;;;;;5012639;28;20441;-71
2022/06/30 07:16:35;;;;;;;15.55;6.60;;;28.80;60.20;;;;;;5012668;28;20080;-71
2022/06/30 07:19:00;;;;;;;9.93;5.55;;;28.70;65.00;;;;;;5012659;28;20355;-71
2022/06/30 07:21:26;;;;;;;8.63;5.18;;;30.50;58.40;;;;;;5012506;28;20044;-72
2022/06/30 07:23:51;;;;;;;18.13;6.35;;;30.20;58.20;;;;;;5012600;28;20492;-71
2022/06/30 07:26:17;;;;;;;11.40;6.70;;;31.60;57.50;;;;;;5012960;28;20125;-72
2022/06/30 07:28:42;;;;;;;12.00;6.30;;;30.70;56.70;;;;;;5016363;28;20101;-72
2022/06/30 07:31:08;;;;;;;12.48;5.70;;;31.10;57.40;;;;;;5016005;28;20037;-71
2022/06/30 07:33:34;;;;;;;20.48;6.57;;;31.70;56.30;;;;;;4998961;28;20025;-72
2022/06/30 07:35:59;;;;;;;7.13;5.72;;;31.80;54.90;;;;;;4998686;28;20025;-71
2022/06/30 07:38:25;;;;;;;9.02;5.95;;;31.20;56.60;;;;;;5016100;28;20032;-71
2022/06/30 07:40:50;;;;;;;10.50;5.95;;;30.30;57.90;;;;;;5016008;28;20389;-72
2022/06/30 07:43:16;;;;;;;10.43;6.05;;;30.40;58.50;;;;;;5015887;28;20033;-71
2022/06/30 07:45:41;;;;;;;9.65;5.78;;;31.60;55.90;;;;;;5016001;28;20064;-72
2022/06/30 07:48:07;;;;;;;12.98;6.50;;;30.90;55.00;;;;;;5015777;28;20104;-71
2022/06/30 07:50:33;;;;;;;11.52;6.00;;;31.30;56.50;;;;;;5015788;28;20165;-71
2022/06/30 07:52:59;;;;;;;11.63;7.30;;;30.70;57.30;;;;;;5015765;28;20531;-71
2022/06/30 07:55:24;;;;;;;11.00;6.80;;;32.00;54.80;;;;;;5015637;28;20038;-71
2022/06/30 07:57:50;;;;;;;12.10;6.63;;;31.70;54.00;;;;;;5015761;28;20080;-71
2022/06/30 08:00:16;;;;;;;11.35;7.03;;;30.80;57.70;;;;;;5015496;28;20785;-71
2022/06/30 08:02:42;;;;;;;14.88;6.35;;;31.70;57.00;;;;;;4998331;28;20099;-71
2022/06/30 08:05:07;;;;;;;14.48;6.82;;;32.00;54.70;;;;;;5015515;28;20466;-71
2022/06/30 08:07:33;;;;;;;13.27;6.95;;;33.50;52.80;;;;;;4998154;28;20030;-71
2022/06/30 08:09:59;;;;;;;8.98;7.68;;;32.30;53.50;;;;;;4997988;28;20079;-70
2022/06/30 08:12:24;;;;;;;16.75;6.95;;;31.40;55.10;;;;;;5015252;28;20038;-71
2022/06/30 08:14:50;;;;;;;7.60;4.95;;;32.20;54.40;;;;;;5015350;28;20022;-71
2022/06/30 08:17:15;;;;;;;8.88;5.15;;;31.60;53.20;;;;;;5015281;28;20026;-71
2022/06/30 08:19:41;;;;;;;17.45;6.00;;;32.30;53.50;;;;;;5015350;28;20109;-72
2022/06/30 08:22:07;;;;;;;9.85;4.78;;;31.80;53.10;;;;;;5014953;28;20099;-71
2022/06/30 08:24:32;;;;;;;9.48;4.35;;;32.00;53.00;;;;;;5015279;28;20446;-71
2022/06/30 08:27:02;;;;;;;8.95;3.58;;;32.60;51.40;;;;;;5015103;28;20064;-71
2022/06/30 08:29:32;;;;;;;10.52;4.38;;;33.60;51.10;;;;;;5015074;28;20030;-71
2022/06/30 08:32:01;;;;;;;8.65;4.32;;;32.90;50.10;;;;;;5015060;28;20054;-71
2022/06/30 08:34:26;;;;;;;8.60;4.32;;;33.20;52.30;;;;;;5015089;28;20133;-71
2022/06/30 08:36:52;;;;;;;11.88;4.55;;;33.20;51.40;;;;;;5015005;28;20138;-71
2022/06/30 08:42:04;;;;;;;9.75;3.50;;;34.40;48.00;;;;;;5015012;28;20033;-71
2022/06/30 08:44:34;;;;;;;13.18;4.15;;;34.60;47.90;;;;;;5014909;28;20030;-71
2022/06/30 08:47:00;;;;;;;15.93;6.53;;;34.10;48.70;;;;;;4997303;28;20113;-72
2022/06/30 08:49:26;;;;;;;7.15;3.55;;;33.10;49.10;;;;;;5014634;28;20601;-71
2022/06/30 08:51:52;;;;;;;5.28;3.65;;;31.70;51.80;;;;;;5014721;28;20048;-71
2022/06/30 08:54:17;;;;;;;10.75;3.90;;;33.60;49.80;;;;;;4996938;28;20042;-70
2022/06/30 08:56:43;;;;;;;9.13;3.78;;;32.50;48.40;;;;;;4997253;28;20026;-71
2022/06/30 08:59:08;;;;;;;9.95;4.03;;;33.20;48.70;;;;;;4997010;28;20022;-71
2022/06/30 09:01:34;;;;;;;13.43;4.43;;;33.20;50.60;;;;;;5014550;28;20022;-71
2022/06/30 09:04:00;;;;;;;14.30;4.20;;;32.70;52.80;;;;;;5014501;28;20386;-71
2022/06/30 09:06:25;;;;;;;12.65;3.45;;;34.10;52.00;;;;;;5014486;28;20389;-71
2022/06/30 09:08:51;;;;;;;7.18;3.55;;;34.40;50.10;;;;;;5014330;28;20022;-71
2022/06/30 09:11:16;;;;;;;15.10;4.75;;;34.20;50.10;;;;;;5014182;28;20394;-70
2022/06/30 09:13:48;;;;;;;9.70;3.55;;;33.80;51.20;;;;;;4996843;28;20113;-71
2022/06/30 09:16:14;;;;;;;10.63;3.22;;;33.30;49.10;;;;;;5014155;28;20084;-71
2022/06/30 09:18:39;;;;;;;4.93;2.85;;;33.90;48.00;;;;;;5014319;28;20022;-71
2022/06/30 09:21:26;;;;;;;6.25;3.30;;;34.30;47.80;;;;;;5014124;28;20017;-71
2022/06/30 09:23:51;;;;;;;7.72;3.17;;;34.60;46.80;;;;;;5014215;28;20040;-71
2022/06/30 09:26:19;;;;;;;11.75;3.08;;;34.10;49.50;;;;;;5013978;28;20097;-70
2022/06/30 09:28:45;;;;;;;11.65;2.92;;;33.70;48.10;;;;;;5014160;28;20026;-71
2022/06/30 09:31:13;;;;;;;6.80;3.65;;;33.80;47.60;;;;;;5013748;28;20033;-70
2022/06/30 09:33:39;;;;;;;9.52;3.60;;;34.50;48.40;;;;;;5009653;28;20026;-70
2022/06/30 09:36:21;;;;;;;8.55;3.53;;;33.40;49.50;;;;;;5013892;28;20048;-71
2022/06/30 09:39:07;;;;;;;8.85;3.55;;;34.60;50.40;;;;;;5013940;28;20033;-71
2022/06/30 09:41:35;;;;;;;10.40;3.85;;;33.80;49.50;;;;;;5013901;28;20025;-70
2022/06/30 09:44:04;;;;;;;9.48;3.53;;;32.10;49.50;;;;;;5013771;28;20021;-71
2022/06/30 09:46:29;;;;;;;11.15;3.47;;;33.00;50.50;;;;;;5013586;28;20394;-71
2022/06/30 09:48:55;;;;;;;9.10;2.75;;;33.60;49.80;;;;;;5013691;28;20033;-71
2022/06/30 09:51:20;;;;;;;7.63;2.97;;;33.90;49.30;;;;;;5013329;28;20037;-71
2022/06/30 09:54:05;;;;;;;8.15;5.35;;;34.40;49.50;;;;;;4996244;28;20029;-71
2022/06/30 09:56:31;;;;;;;18.27;5.22;;;33.30;48.50;;;;;;5013525;28;20064;-71
2022/06/30 09:58:57;;;;;;;12.85;4.05;;;33.80;49.70;;;;;;5013653;28;20026;-71
2022/06/30 10:01:22;;;;;;;14.77;4.28;;;33.50;48.70;;;;;;4995956;28;20029;-70
2022/06/30 10:03:59;;;;;;;15.43;4.93;;;33.20;48.80;;;;;;4995896;28;20447;-70
2022/06/30 10:06:24;;;;;;;5.80;2.10;;;34.90;47.40;;;;;;5013393;28;20026;-70
2022/06/30 10:08:50;;;;;;;8.02;2.50;;;32.80;46.60;;;;;;5013439;28;20386;-71
2022/06/30 10:11:15;;;;;;;12.38;2.80;;;33.40;45.80;;;;;;4995657;28;20025;-71
2022/06/30 10:13:42;;;;;;;4.10;2.40;;;34.40;48.90;;;;;;5013425;28;20022;-71
2022/06/30 10:16:08;;;;;;;8.02;2.72;;;34.20;45.40;;;;;;5013220;28;20029;-71
2022/06/30 10:18:37;;;;;;;9.20;3.10;;;34.20;45.40;;;;;;5013243;28;20026;-71
2022/06/30 10:21:04;;;;;;;8.13;3.00;;;33.50;46.20;;;;;;5013169;28;20034;-70
2022/06/30 10:23:30;;;;;;;7.82;2.70;;;33.40;48.40;;;;;;5013084;28;20034;-70
2022/06/30 10:25:55;;;;;;;9.82;2.97;;;32.30;47.90;;;;;;5013254;28;20028;-70
2022/06/30 10:28:22;;;;;;;10.52;3.22;;;32.70;48.50;;;;;;5013308;28;20044;-71
2022/06/30 10:31:10;;;;;;;7.78;2.88;;;33.60;49.10;;;;;;5013066;28;20056;-71
2022/06/30 10:34:00;;;;;;;8.43;2.55;;;33.30;50.10;;;;;;5012884;28;20100;-71
2022/06/30 10:36:29;;;;;;;9.27;3.38;;;33.30;49.10;;;;;;5012934;28;20022;-71
2022/06/30 10:39:07;;;;;;;12.32;3.38;;;33.60;48.80;;;;;;4995543;28;20024;-70
2022/06/30 10:41:45;;;;;;;14.35;3.25;;;32.70;49.30;;;;;;5012987;28;20038;-70
2022/06/30 10:44:18;;;;;;;7.93;3.60;;;32.60;49.70;;;;;;4996899;28;20033;-70
2022/06/30 10:46:55;;;;;;;8.90;3.47;;;31.80;51.40;;;;;;5013116;28;20088;-70
2022/06/30 10:49:22;;;;;;;12.45;4.25;;;32.70;50.90;;;;;;5012854;28;20080;-70
2022/06/30 10:51:47;;;;;;;12.40;4.30;;;34.00;48.80;;;;;;5012929;28;20033;-70
2022/06/30 10:54:30;;;;;;;9.27;3.58;;;33.40;49.90;;;;;;4995239;28;20584;-70
2022/06/30 10:56:56;;;;;;;8.13;3.03;;;33.60;47.30;;;;;;5012838;28;20398;-76
2022/06/30 10:59:31;;;;;;;10.60;3.80;;;33.50;47.80;;;;;;5011654;28;20030;-77
2022/06/30 11:02:13;;;;;;;14.23;3.58;;;33.00;51.20;;;;;;5014548;28;20026;-77
2022/06/30 11:04:49;;;;;;;9.95;3.40;;;33.00;50.40;;;;;;5016891;28;20029;-77
2022/06/30 11:07:24;;;;;;;5.15;3.40;;;32.60;51.60;;;;;;5015600;28;20104;-77
2022/06/30 11:09:55;;;;;;;8.82;4.28;;;33.10;51.70;;;;;;5015669;28;20030;-76
2022/06/30 11:12:29;;;;;;;13.70;3.88;;;31.60;53.50;;;;;;5016487;28;20478;-77
2022/06/30 11:14:56;;;;;;;10.60;3.60;;;31.30;54.30;;;;;;5016626;28;20111;-76
2022/06/30 11:17:26;;;;;;;8.63;3.10;;;31.20;54.30;;;;;;5016501;28;20026;-76
2022/06/30 11:20:12;;;;;;;12.60;4.07;;;30.30;54.00;;;;;;5015468;28;20037;-77
2022/06/30 11:22:37;;;;;;;11.60;3.53;;;31.10;54.50;;;;;;5016544;28;20042;-77
2022/06/30 11:25:05;;;;;;;14.63;3.90;;;31.90;51.00;;;;;;5016487;28;20094;-77
2022/06/30 11:27:32;;;;;;;9.43;3.80;;;31.10;53.80;;;;;;5016318;28;20030;-77
2022/06/30 11:29:58;;;;;;;14.00;5.45;;;32.40;52.90;;;;;;5015253;28;20034;-76
2022/06/30 11:32:24;;;;;;;17.77;7.00;;;32.70;50.70;;;;;;5015017;28;20030;-76
2022/06/30 11:34:50;;;;;;;15.63;4.88;;;32.60;51.80;;;;;;5016319;28;20478;-77
2022/06/30 11:37:22;;;;;;;16.65;4.97;;;32.30;52.50;;;;;;5015993;28;20029;-76
2022/06/30 11:40:11;;;;;;;12.65;3.70;;;32.30;51.90;;;;;;5014985;28;20513;-76
2022/06/30 11:42:37;;;;;;;8.93;3.60;;;31.60;52.40;;;;;;5015122;28;20022;-75
2022/06/30 11:45:14;;;;;;;14.95;4.20;;;31.00;53.00;;;;;;5016040;28;20037;-75
2022/06/30 11:47:40;;;;;;;8.63;3.28;;;31.00;52.60;;;;;;5014913;28;20022;-75
2022/06/30 11:50:06;;;;;;;7.05;3.40;;;32.50;52.70;;;;;;5014748;28;20022;-75
2022/06/30 11:52:34;;;;;;;11.32;3.90;;;32.30;51.80;;;;;;5015753;28;20509;-75
2022/06/30 11:55:02;;;;;;;11.63;3.47;;;32.90;54.00;;;;;;5014484;28;20498;-75
2022/06/30 11:57:29;;;;;;;12.45;2.90;;;33.40;53.00;;;;;;4998215;28;20068;-75
2022/06/30 12:00:00;;;;;;;8.40;3.38;;;33.30;52.30;;;;;;5015802;28;20060;-75
2022/06/30 12:02:25;;;;;;;7.28;2.90;;;33.60;52.60;;;;;;5014584;28;20050;-75
2022/06/30 12:04:56;;;;;;;7.93;3.00;;;33.80;50.50;;;;;;5015300;28;20563;-75
2022/06/30 12:07:22;;;;;;;6.20;3.20;;;33.40;49.80;;;;;;5014834;28;20034;-75
2022/06/30 12:09:49;;;;;;;14.18;3.28;;;33.80;47.20;;;;;;5013906;28;20025;-75
2022/06/30 12:12:18;;;;;;;8.85;3.42;;;34.40;48.20;;;;;;5013518;28;20034;-75
2022/06/30 12:14:45;;;;;;;7.97;3.95;;;34.00;49.30;;;;;;5012866;28;20053;-75
2022/06/30 12:17:11;;;;;;;7.85;3.55;;;33.80;50.90;;;;;;5014682;28;20030;-75
2022/06/30 12:19:38;;;;;;;13.10;4.00;;;33.80;50.30;;;;;;5013785;28;20025;-75
2022/06/30 12:22:04;;;;;;;8.73;3.30;;;33.10;49.50;;;;;;5015055;28;20026;-75
2022/06/30 12:24:30;;;;;;;7.22;3.78;;;33.10;52.00;;;;;;4997233;28;20026;-76
2022/06/30 12:26:57;;;;;;;8.88;3.90;;;32.50;51.10;;;;;;5014871;28;20033;-76
2022/06/30 12:29:23;;;;;;;8.15;3.85;;;32.10;54.00;;;;;;5014406;28;20457;-75
2022/06/30 12:32:01;;;;;;;13.55;3.58;;;32.50;51.70;;;;;;5014717;28;20030;-75
2022/06/30 12:34:26;;;;;;;15.90;3.95;;;33.10;50.20;;;;;;5014605;28;20048;-74
2022/06/30 12:37:02;;;;;;;11.23;7.38;;;33.00;51.70;;;;;;5014782;28;20026;-74
2022/06/30 12:39:31;;;;;;;26.08;22.50;;;33.40;51.60;;;;;;5013410;28;20034;-75
2022/06/30 12:42:02;;;;;;;13.73;4.80;;;33.30;50.80;;;;;;4997650;28;20109;-75
2022/06/30 12:44:31;;;;;;;13.40;4.63;;;33.40;49.70;;;;;;5013179;28;20117;-75
2022/06/30 12:47:02;;;;;;;9.88;4.60;;;34.00;51.50;;;;;;5014733;28;20026;-75
2022/06/30 12:49:28;;;;;;;12.10;4.05;;;34.20;48.60;;;;;;5014280;28;20121;-76